Time;durP1;ratioP1;P1;durP2;ratioP2;P2;SDS_P1;SDS_P2;PMS_P1;PMS_P2;Temp;Humidity;BMP_temperature;BMP_pressure;BME280_temperature;BME280_humidity;BME280_pressure;Samples;Min_cycle;Max_cycle;Signal;HPM_P1;HPM_P2
2023/11/02 00:01:53;;;;;;;11.05;2.13;;;9.50;99.90;;;;;;7372557;19;20783;-60
2023/11/02 00:04:23;;;;;;;6.28;2.42;;;9.50;99.90;;;;;;7371566;19;20061;-60
2023/11/02 00:06:50;;;;;;;5.75;2.40;;;9.50;99.90;;;;;;7375620;19;20015;-60
2023/11/02 00:09:34;;;;;;;7.32;2.33;;;9.50;99.90;;;;;;7373115;19;20115;-60
2023/11/02 00:12:03;;;;;;;7.05;2.70;;;9.60;99.90;;;;;;7373451;19;20018;-60
2023/11/02 00:14:36;;;;;;;7.05;2.42;;;9.70;99.90;;;;;;7373243;19;20018;-61
2023/11/02 00:17:15;;;;;;;11.07;2.55;;;9.70;99.90;;;;;;7374448;19;20018;-60
2023/11/02 00:19:41;;;;;;;7.15;2.15;;;9.70;99.90;;;;;;7373379;19;20756;-60
2023/11/02 00:22:09;;;;;;;5.57;1.95;;;9.80;99.90;;;;;;7374629;19;20685;-60
2023/11/02 00:24:47;;;;;;;6.95;1.73;;;9.80;99.90;;;;;;7371841;19;20574;-60
2023/11/02 00:27:14;;;;;;;8.05;2.00;;;9.80;99.90;;;;;;7372273;19;20014;-60
2023/11/02 00:29:41;;;;;;;9.15;2.00;;;9.80;99.90;;;;;;7370864;19;20014;-60
2023/11/02 00:32:08;;;;;;;5.15;1.60;;;9.90;99.90;;;;;;7374623;19;20019;-60
2023/11/02 00:34:39;;;;;;;9.30;1.92;;;9.90;99.90;;;;;;7368452;19;20546;-60
2023/11/02 00:37:06;;;;;;;5.30;1.75;;;9.90;99.90;;;;;;7373239;19;20030;-60
2023/11/02 00:39:33;;;;;;;5.30;1.92;;;9.90;99.90;;;;;;7372096;19;20063;-60
2023/11/02 00:41:59;;;;;;;9.15;2.15;;;9.90;99.90;;;;;;7373294;19;20026;-60
2023/11/02 00:44:27;;;;;;;6.93;1.80;;;9.90;99.90;;;;;;7368754;19;20026;-61
2023/11/02 00:46:53;;;;;;;7.32;1.92;;;9.90;99.90;;;;;;7375578;19;20777;-60
2023/11/02 00:49:22;;;;;;;6.15;1.83;;;9.90;99.90;;;;;;7373239;19;20014;-60
2023/11/02 00:51:58;;;;;;;5.40;1.90;;;9.90;99.90;;;;;;7377534;19;20718;-67
2023/11/02 00:54:42;;;;;;;7.63;2.08;;;10.00;99.90;;;;;;7374798;19;20014;-63
2023/11/02 00:57:11;;;;;;;7.10;1.90;;;9.90;99.90;;;;;;7378010;19;20042;-61
2023/11/02 00:59:39;;;;;;;6.22;1.80;;;9.90;99.90;;;;;;7378052;19;20025;-66
2023/11/02 01:02:05;;;;;;;6.65;1.85;;;9.80;99.90;;;;;;7379921;19;20019;-67
2023/11/02 01:04:44;;;;;;;6.40;1.85;;;9.80;99.90;;;;;;7375489;19;20048;-67
2023/11/02 01:07:12;;;;;;;4.45;1.73;;;9.80;99.90;;;;;;7379728;19;20018;-60
2023/11/02 01:09:47;;;;;;;5.82;1.70;;;9.80;99.90;;;;;;7373036;19;20507;-60
2023/11/02 01:12:24;;;;;;;6.85;1.45;;;9.70;99.90;;;;;;7373806;19;20051;-60
2023/11/02 01:14:51;;;;;;;6.00;1.63;;;9.70;99.90;;;;;;7377221;19;20058;-61
2023/11/02 01:17:25;;;;;;;6.97;1.92;;;9.60;99.90;;;;;;7376905;19;20138;-60
2023/11/02 01:19:58;;;;;;;5.35;1.65;;;9.70;99.90;;;;;;7380096;19;20074;-60
2023/11/02 01:22:30;;;;;;;6.25;1.67;;;9.70;99.90;;;;;;7375773;19;20411;-60
2023/11/02 01:25:01;;;;;;;8.88;2.00;;;9.60;99.90;;;;;;7380217;19;20094;-60
2023/11/02 01:27:31;;;;;;;8.98;2.35;;;9.60;99.90;;;;;;7372726;19;20424;-60
2023/11/02 01:29:58;;;;;;;6.57;1.83;;;9.60;99.90;;;;;;7379645;19;20023;-60
2023/11/02 01:32:26;;;;;;;4.10;1.92;;;9.60;99.90;;;;;;7375533;19;20373;-60
2023/11/02 01:34:52;;;;;;;7.97;2.15;;;9.60;99.90;;;;;;7376469;19;20029;-60
2023/11/02 01:37:19;;;;;;;6.97;1.88;;;9.60;99.90;;;;;;7376160;19;20432;-60
2023/11/02 01:40:07;;;;;;;5.45;1.90;;;9.50;99.90;;;;;;7375589;19;20481;-60
2023/11/02 01:42:42;;;;;;;3.92;1.48;;;9.60;99.90;;;;;;7375714;19;21167;-60
2023/11/02 01:45:12;;;;;;;5.45;1.73;;;9.60;99.90;;;;;;7377348;19;20018;-60
2023/11/02 01:48:10;;;;;;;9.85;2.45;;;9.60;99.90;;;;;;7377037;19;20502;-60
2023/11/02 01:50:43;;;;;;;5.20;1.90;;;9.60;99.90;;;;;;7372880;19;20875;-60
2023/11/02 01:53:21;;;;;;;6.18;1.92;;;9.60;99.90;;;;;;7378157;19;20042;-66
2023/11/02 01:55:56;;;;;;;6.15;2.00;;;9.50;99.90;;;;;;7374829;19;20015;-66
2023/11/02 01:58:32;;;;;;;9.15;2.60;;;9.60;99.90;;;;;;7372534;19;20018;-66
2023/11/02 02:01:09;;;;;;;7.55;2.28;;;9.60;99.90;;;;;;7374814;19;20043;-66
2023/11/02 02:03:49;;;;;;;7.45;2.22;;;9.50;99.90;;;;;;7377896;19;20105;-66
2023/11/02 02:06:29;;;;;;;7.30;2.47;;;9.50;99.90;;;;;;7367510;19;20066;-67
2023/11/02 02:09:01;;;;;;;6.38;1.92;;;9.50;99.90;;;;;;7375944;19;20510;-66
2023/11/02 02:11:41;;;;;;;5.18;2.05;;;9.50;99.90;;;;;;7375604;19;20019;-66
2023/11/02 02:14:28;;;;;;;5.18;2.30;;;9.40;99.90;;;;;;7375378;19;20022;-66
2023/11/02 02:17:36;;;;;;;9.25;2.15;;;9.40;99.90;;;;;;7375135;19;20026;-66
2023/11/02 02:20:12;;;;;;;4.43;1.90;;;9.50;99.90;;;;;;7374049;19;20018;-66
2023/11/02 02:23:12;;;;;;;4.63;1.85;;;9.50;99.90;;;;;;7375865;19;20036;-65
2023/11/02 02:25:42;;;;;;;5.57;1.77;;;9.50;99.90;;;;;;7375595;19;20022;-65
2023/11/02 02:28:14;;;;;;;8.88;1.90;;;9.50;99.90;;;;;;7373588;19;20757;-66
2023/11/02 02:31:15;;;;;;;4.63;2.22;;;9.50;99.90;;;;;;7375346;19;20014;-66
2023/11/02 02:34:08;;;;;;;9.52;2.15;;;9.50;99.90;;;;;;7377660;19;20634;-64
2023/11/02 02:37:03;;;;;;;5.63;1.80;;;9.50;99.90;;;;;;7373553;19;20514;-60
2023/11/02 02:39:37;;;;;;;8.00;2.30;;;9.40;99.90;;;;;;7372601;19;20467;-66
2023/11/02 02:42:07;;;;;;;4.57;2.00;;;9.40;99.90;;;;;;7372738;19;20439;-66
2023/11/02 02:44:36;;;;;;;6.07;1.75;;;9.40;99.90;;;;;;7372187;19;20021;-66
2023/11/02 02:47:03;;;;;;;9.75;2.00;;;9.40;99.90;;;;;;7372466;19;20016;-66
2023/11/02 02:49:37;;;;;;;6.28;2.00;;;9.40;99.90;;;;;;7375317;19;20478;-66
2023/11/02 02:52:12;;;;;;;6.40;1.80;;;9.30;99.90;;;;;;7373783;19;20051;-66
2023/11/02 02:54:44;;;;;;;7.20;1.67;;;9.30;99.90;;;;;;7373055;19;20085;-65
2023/11/02 02:57:11;;;;;;;;;;;9.30;99.90;;;;;;7373799;19;20788;-66
2023/11/02 02:59:41;;;;;;;5.18;1.83;;;9.30;99.90;;;;;;7372785;19;19956;-66
2023/11/02 03:02:08;;;;;;;6.07;1.92;;;9.30;99.90;;;;;;7372047;19;20078;-66
2023/11/02 03:04:35;;;;;;;4.95;1.90;;;9.30;99.90;;;;;;7374900;19;20014;-66
2023/11/02 03:07:04;;;;;;;4.43;1.70;;;9.30;99.90;;;;;;7373837;19;20025;-66
2023/11/02 03:09:32;;;;;;;4.57;1.85;;;9.40;99.90;;;;;;7372036;19;20014;-66
2023/11/02 03:12:05;;;;;;;8.43;2.00;;;9.40;99.90;;;;;;7375561;19;20026;-67
2023/11/02 03:14:34;;;;;;;6.45;1.90;;;9.40;99.90;;;;;;7373225;19;20011;-66
2023/11/02 03:17:35;;;;;;;5.90;1.60;;;9.40;99.90;;;;;;7375991;19;20490;-66
2023/11/02 03:20:02;;;;;;;5.00;1.60;;;9.40;99.90;;;;;;7374212;19;20021;-60
2023/11/02 03:22:28;;;;;;;4.20;1.83;;;9.30;99.90;;;;;;7375051;19;20024;-61
2023/11/02 03:25:32;;;;;;;3.45;1.65;;;9.30;99.90;;;;;;7373944;19;20080;-66
2023/11/02 03:28:12;;;;;;;5.18;1.65;;;9.30;99.90;;;;;;7373861;19;20119;-66
2023/11/02 03:30:51;;;;;;;6.53;1.40;;;9.30;99.90;;;;;;7372150;19;20022;-66
2023/11/02 03:33:26;;;;;;;7.30;1.55;;;9.30;99.90;;;;;;7353752;19;20027;-66
2023/11/02 03:36:08;;;;;;;6.28;2.08;;;9.30;99.90;;;;;;7372623;19;20022;-67
2023/11/02 03:39:03;;;;;;;4.07;1.50;;;9.30;99.90;;;;;;7374440;19;20306;-60
2023/11/02 03:41:42;;;;;;;7.97;2.05;;;9.30;99.90;;;;;;7369191;19;20026;-60
2023/11/02 03:44:43;;;;;;;5.10;1.67;;;9.30;99.90;;;;;;7374167;19;20487;-61
2023/11/02 03:47:43;;;;;;;3.50;1.20;;;9.30;99.90;;;;;;7370612;19;20018;-60
2023/11/02 03:50:35;;;;;;;4.03;1.10;;;9.30;99.90;;;;;;7372620;19;20471;-60
2023/11/02 03:53:20;;;;;;;;;;;9.40;99.90;;;;;;7370264;19;20651;-66
2023/11/02 03:56:07;;;;;;;4.63;1.40;;;9.40;99.90;;;;;;7369735;19;19926;-60
2023/11/02 03:58:49;;;;;;;4.78;1.90;;;9.50;99.90;;;;;;7369604;19;20017;-60
2023/11/02 04:01:20;;;;;;;3.10;1.27;;;9.50;99.90;;;;;;7371817;19;20019;-61
2023/11/02 04:03:50;;;;;;;3.92;1.20;;;9.60;99.90;;;;;;7371762;19;20014;-61
2023/11/02 04:06:20;;;;;;;2.85;1.40;;;9.60;99.90;;;;;;7375248;19;20042;-60
2023/11/02 04:08:50;;;;;;;2.97;1.20;;;9.60;99.90;;;;;;7372028;19;20022;-61
2023/11/02 04:11:30;;;;;;;3.13;1.10;;;9.70;99.90;;;;;;7370862;19;20030;-61
2023/11/02 04:14:12;;;;;;;5.32;1.42;;;9.70;99.90;;;;;;7372741;19;20029;-66
2023/11/02 04:16:39;;;;;;;;;;;9.70;99.90;;;;;;7371821;19;20049;-68
2023/11/02 04:19:06;;;;;;;4.28;1.10;;;9.70;99.90;;;;;;7372986;19;19953;-60
2023/11/02 04:21:33;;;;;;;4.80;1.20;;;9.80;99.90;;;;;;7372541;19;20022;-61
2023/11/02 04:23:59;;;;;;;5.15;1.10;;;9.70;99.90;;;;;;7372726;19;20887;-67
2023/11/02 04:26:28;;;;;;;5.80;1.42;;;9.90;99.90;;;;;;7377013;19;20383;-66
2023/11/02 04:28:56;;;;;;;3.50;1.02;;;9.80;99.90;;;;;;7381167;19;20372;-61
2023/11/02 04:31:23;;;;;;;3.85;1.05;;;9.90;99.90;;;;;;7377769;19;20043;-61
2023/11/02 04:33:49;;;;;;;9.52;1.30;;;9.90;99.90;;;;;;7379075;19;20848;-61
2023/11/02 04:36:16;;;;;;;7.97;1.38;;;10.00;99.90;;;;;;7382346;19;20023;-60
2023/11/02 04:38:42;;;;;;;4.88;1.30;;;9.90;99.90;;;;;;7379051;19;20022;-60
2023/11/02 04:41:08;;;;;;;4.53;1.35;;;10.00;99.90;;;;;;7377048;19;20081;-60
2023/11/02 04:43:34;;;;;;;6.15;1.40;;;10.00;99.90;;;;;;7378481;19;20023;-61
2023/11/02 04:46:01;;;;;;;5.50;1.60;;;10.00;99.90;;;;;;7379423;19;20851;-61
2023/11/02 04:48:28;;;;;;;3.70;1.08;;;10.00;99.90;;;;;;7377922;19;20048;-60
2023/11/02 04:50:55;;;;;;;7.63;1.42;;;10.10;99.90;;;;;;7375489;19;20041;-61
2023/11/02 04:53:22;;;;;;;6.57;1.25;;;10.10;99.90;;;;;;7378392;19;20042;-61
2023/11/02 04:55:49;;;;;;;3.28;1.27;;;10.10;99.90;;;;;;7374307;19;20374;-61
2023/11/02 04:58:16;;;;;;;4.35;1.15;;;10.10;99.90;;;;;;7376300;19;20383;-60
2023/11/02 05:00:42;;;;;;;3.90;1.23;;;10.10;99.90;;;;;;7372294;19;20019;-60
2023/11/02 05:03:08;;;;;;;5.65;1.55;;;10.20;99.90;;;;;;7378291;19;20018;-61
2023/11/02 05:05:35;;;;;;;5.57;1.42;;;10.10;99.90;;;;;;7376009;19;20058;-61
2023/11/02 05:08:01;;;;;;;5.47;1.55;;;10.10;99.90;;;;;;7378433;19;20026;-61
2023/11/02 05:10:31;;;;;;;7.45;1.63;;;10.20;99.90;;;;;;7374700;19;20077;-61
2023/11/02 05:12:57;;;;;;;3.92;1.27;;;10.20;99.90;;;;;;7379809;19;20026;-61
2023/11/02 05:15:23;;;;;;;7.45;1.30;;;10.10;99.90;;;;;;7374108;19;20414;-61
2023/11/02 05:17:50;;;;;;;3.03;1.25;;;10.20;99.90;;;;;;7376165;19;20448;-61
2023/11/02 05:20:17;;;;;;;4.28;1.15;;;10.20;99.90;;;;;;7376247;19;20015;-60
2023/11/02 05:22:46;;;;;;;7.07;1.67;;;10.10;99.90;;;;;;7374951;19;20018;-66
2023/11/02 05:25:13;;;;;;;3.28;1.25;;;10.30;99.90;;;;;;7375933;19;20018;-66
2023/11/02 05:27:39;;;;;;;5.25;1.20;;;10.20;99.90;;;;;;7371555;19;20035;-66
2023/11/02 05:30:06;;;;;;;5.18;1.42;;;10.30;99.90;;;;;;7377215;19;20010;-61
2023/11/02 05:32:33;;;;;;;5.32;1.30;;;10.30;99.90;;;;;;7373875;19;20023;-61
2023/11/02 05:35:00;;;;;;;5.45;1.25;;;10.40;99.90;;;;;;7374068;19;20018;-60
2023/11/02 05:37:26;;;;;;;1.98;1.10;;;10.40;99.90;;;;;;7374058;19;20074;-61
2023/11/02 05:39:54;;;;;;;2.20;0.90;;;10.40;99.90;;;;;;7378203;19;20018;-60
2023/11/02 05:42:20;;;;;;;6.57;1.38;;;10.40;99.90;;;;;;7376915;19;20082;-60
2023/11/02 05:44:46;;;;;;;5.45;1.40;;;10.50;99.90;;;;;;7376932;19;20030;-66
2023/11/02 05:47:14;;;;;;;3.55;0.95;;;10.50;99.90;;;;;;7377685;19;20027;-66
2023/11/02 05:49:40;;;;;;;3.35;0.88;;;10.50;99.90;;;;;;7375011;19;20442;-67
2023/11/02 05:52:06;;;;;;;6.30;1.27;;;10.50;99.90;;;;;;7376939;19;20538;-66
2023/11/02 05:54:32;;;;;;;4.05;1.20;;;10.60;99.90;;;;;;7375188;19;20090;-68
2023/11/02 05:56:59;;;;;;;3.28;1.08;;;10.60;99.90;;;;;;7375259;19;20029;-67
2023/11/02 05:59:25;;;;;;;6.25;1.27;;;10.60;99.90;;;;;;7376382;19;20025;-61
2023/11/02 06:01:52;;;;;;;7.50;1.60;;;10.60;99.90;;;;;;7374384;19;20026;-61
2023/11/02 06:04:18;;;;;;;4.40;1.23;;;10.60;99.90;;;;;;7377645;19;20034;-61
2023/11/02 06:06:45;;;;;;;6.85;1.30;;;10.70;99.90;;;;;;7375621;19;20037;-60
2023/11/02 06:09:12;;;;;;;4.10;1.15;;;10.70;99.90;;;;;;7377180;19;20022;-67
2023/11/02 06:11:38;;;;;;;5.07;1.17;;;10.70;99.90;;;;;;7375306;19;20026;-67
2023/11/02 06:14:04;;;;;;;5.40;1.13;;;10.70;99.90;;;;;;7373573;19;20026;-67
2023/11/02 06:16:31;;;;;;;3.30;1.10;;;10.70;99.90;;;;;;7374759;19;20019;-67
2023/11/02 06:18:57;;;;;;;7.40;0.98;;;10.70;99.90;;;;;;7374008;19;20030;-67
2023/11/02 06:21:23;;;;;;;4.05;1.15;;;10.80;99.90;;;;;;7375748;19;20628;-68
2023/11/02 06:23:49;;;;;;;2.70;0.93;;;10.80;99.90;;;;;;7376596;19;20046;-67
2023/11/02 06:26:18;;;;;;;2.63;0.82;;;10.80;99.90;;;;;;7376786;19;20029;-66
2023/11/02 06:28:47;;;;;;;5.07;1.08;;;10.80;99.90;;;;;;7370194;19;20033;-66
2023/11/02 06:31:14;;;;;;;3.28;0.77;;;10.90;99.90;;;;;;7373769;19;20648;-66
2023/11/02 06:33:41;;;;;;;4.47;1.00;;;10.90;99.90;;;;;;7373913;19;20019;-67
2023/11/02 06:36:07;;;;;;;3.95;1.00;;;10.90;99.90;;;;;;7374670;19;20458;-67
2023/11/02 06:38:33;;;;;;;4.25;1.15;;;10.90;99.90;;;;;;7375679;19;20014;-62
2023/11/02 06:41:00;;;;;;;4.82;1.00;;;10.80;99.90;;;;;;7372054;19;20022;-67
2023/11/02 06:43:27;;;;;;;5.35;1.25;;;10.90;99.90;;;;;;7371697;19;20021;-67
2023/11/02 06:45:53;;;;;;;4.13;1.17;;;10.90;99.90;;;;;;7374550;19;20011;-66
2023/11/02 06:48:21;;;;;;;2.33;0.85;;;10.80;99.90;;;;;;7373273;19;20462;-67
2023/11/02 06:50:50;;;;;;;4.28;1.20;;;10.90;99.90;;;;;;7375460;19;20048;-67
2023/11/02 06:53:16;;;;;;;5.85;1.30;;;10.90;99.90;;;;;;7375648;19;20060;-67
2023/11/02 06:55:48;;;;;;;3.13;1.15;;;10.90;99.90;;;;;;7372440;19;20048;-63
2023/11/02 06:58:15;;;;;;;3.78;1.05;;;10.90;99.90;;;;;;7376890;19;20022;-67
2023/11/02 07:00:42;;;;;;;3.83;1.13;;;10.90;99.90;;;;;;7381523;19;20105;-69
2023/11/02 07:03:08;;;;;;;5.85;1.25;;;10.90;99.90;;;;;;7384489;19;20048;-69
2023/11/02 07:05:34;;;;;;;3.78;1.00;;;11.00;99.90;;;;;;7380203;19;20015;-69
2023/11/02 07:08:01;;;;;;;4.72;1.17;;;11.00;99.90;;;;;;7383966;19;20025;-68
2023/11/02 07:10:27;;;;;;;4.00;1.30;;;11.00;99.90;;;;;;7379055;19;20014;-69
2023/11/02 07:12:54;;;;;;;3.58;0.90;;;11.00;99.90;;;;;;7383552;19;20019;-68
2023/11/02 07:15:22;;;;;;;5.00;1.30;;;11.00;99.90;;;;;;7382356;19;20017;-68
2023/11/02 07:17:49;;;;;;;7.10;1.38;;;11.10;99.90;;;;;;7382549;19;20478;-70
2023/11/02 07:20:16;;;;;;;4.07;1.13;;;11.10;99.90;;;;;;7375268;19;20386;-59
2023/11/02 07:22:42;;;;;;;6.38;1.10;;;11.00;99.90;;;;;;7374289;19;20098;-60
2023/11/02 07:25:09;;;;;;;9.25;1.45;;;11.10;99.90;;;;;;7373874;19;20014;-59
2023/11/02 07:27:35;;;;;;;6.70;1.35;;;11.10;99.90;;;;;;7374166;19;20018;-59
2023/11/02 07:30:02;;;;;;;3.67;0.90;;;11.10;99.90;;;;;;7374715;19;20029;-60
2023/11/02 07:32:29;;;;;;;3.60;1.10;;;11.10;99.90;;;;;;7370684;19;20081;-59
2023/11/02 07:34:55;;;;;;;8.13;1.30;;;11.10;99.90;;;;;;7371884;19;20015;-59
2023/11/02 07:37:22;;;;;;;2.38;1.08;;;11.00;99.90;;;;;;7373659;19;20506;-59
2023/11/02 07:39:48;;;;;;;3.22;1.10;;;10.90;99.90;;;;;;7377228;19;20026;-59
2023/11/02 07:42:14;;;;;;;5.68;1.48;;;10.90;99.90;;;;;;7372294;19;20022;-59
2023/11/02 07:44:43;;;;;;;4.28;1.20;;;10.80;99.90;;;;;;7373923;19;20021;-67
2023/11/02 07:47:09;;;;;;;4.15;1.20;;;10.70;99.90;;;;;;7380302;19;20495;-59
2023/11/02 07:49:38;;;;;;;6.55;1.27;;;10.60;99.90;;;;;;7369198;19;20450;-60
2023/11/02 07:52:06;;;;;;;5.85;1.50;;;10.60;99.90;;;;;;7372557;19;20022;-60
2023/11/02 07:54:39;;;;;;;3.13;1.10;;;10.60;99.90;;;;;;7369343;19;20014;-59
2023/11/02 07:57:10;;;;;;;5.13;1.35;;;10.60;99.90;;;;;;7369823;19;20014;-59
2023/11/02 07:59:37;;;;;;;5.90;1.42;;;10.50;99.90;;;;;;7370304;19;20019;-59
2023/11/02 08:02:05;;;;;;;3.47;1.05;;;10.60;99.90;;;;;;7382162;19;20105;-58
2023/11/02 08:04:31;;;;;;;3.28;0.98;;;10.60;99.90;;;;;;7378682;19;20090;-57
2023/11/02 08:06:57;;;;;;;2.92;1.40;;;10.60;99.90;;;;;;7380746;19;20774;-59
2023/11/02 08:09:24;;;;;;;3.33;1.10;;;10.70;99.90;;;;;;7379846;19;20018;-59
2023/11/02 08:11:50;;;;;;;2.35;1.30;;;10.60;99.90;;;;;;7379322;19;20485;-58
2023/11/02 08:14:18;;;;;;;6.05;1.00;;;10.70;99.90;;;;;;7385337;19;20018;-59
2023/11/02 08:16:44;;;;;;;3.60;1.10;;;10.70;99.90;;;;;;7378019;19;20019;-59
2023/11/02 08:19:11;;;;;;;4.22;1.00;;;10.70;99.90;;;;;;7377334;19;20019;-59
2023/11/02 08:21:37;;;;;;;5.40;1.75;;;10.80;99.90;;;;;;7381588;19;20019;-67
2023/11/02 08:24:03;;;;;;;2.10;0.77;;;10.80;99.90;;;;;;7387038;19;20018;-68
2023/11/02 08:26:30;;;;;;;3.53;0.93;;;10.80;99.90;;;;;;7380808;19;20029;-59
2023/11/02 08:28:56;;;;;;;4.80;1.15;;;10.80;99.90;;;;;;7390609;19;20026;-66
2023/11/02 08:31:27;;;;;;;3.40;1.08;;;10.90;99.90;;;;;;7390667;19;20015;-67
2023/11/02 08:33:53;;;;;;;3.33;0.75;;;10.90;99.90;;;;;;7386464;19;20022;-67
2023/11/02 08:36:21;;;;;;;2.60;0.80;;;11.00;99.90;;;;;;7383747;19;20026;-59
2023/11/02 08:38:47;;;;;;;4.75;1.25;;;11.10;99.90;;;;;;7380091;19;20032;-59
2023/11/02 08:41:23;;;;;;;5.88;1.02;;;11.30;99.90;;;;;;7379955;19;20014;-67
2023/11/02 08:43:50;;;;;;;6.60;1.35;;;11.30;99.90;;;;;;7380220;19;20021;-59
2023/11/02 08:46:18;;;;;;;1.35;0.70;;;11.30;99.90;;;;;;7380650;19;20028;-59
2023/11/02 08:48:45;;;;;;;4.60;1.02;;;11.30;99.90;;;;;;7381230;19;20898;-59
2023/11/02 08:51:16;;;;;;;6.93;1.50;;;11.30;99.90;;;;;;7383184;19;20018;-59
2023/11/02 08:53:43;;;;;;;2.42;1.10;;;11.30;99.90;;;;;;7380299;19;20023;-67
2023/11/02 08:56:10;;;;;;;4.65;1.00;;;11.30;99.90;;;;;;7379141;19;20019;-59
2023/11/02 08:58:44;;;;;;;2.33;0.82;;;11.30;99.90;;;;;;7380308;19;20034;-59
2023/11/02 09:01:11;;;;;;;4.22;1.20;;;11.50;99.90;;;;;;7376448;19;20203;-59
2023/11/02 09:03:38;;;;;;;2.00;1.00;;;11.60;99.90;;;;;;7379060;19;20383;-59
2023/11/02 09:06:09;;;;;;;3.17;0.70;;;12.00;99.90;;;;;;7379029;19;20014;-59
2023/11/02 09:08:37;;;;;;;1.30;0.70;;;12.50;99.90;;;;;;7378743;19;20018;-59
2023/11/02 09:11:04;;;;;;;3.55;1.20;;;13.20;99.90;;;;;;7379875;19;20905;-59
2023/11/02 09:13:31;;;;;;;2.20;0.90;;;14.40;99.90;;;;;;7376042;19;20077;-60
2023/11/02 09:15:58;;;;;;;5.05;1.00;;;15.40;99.90;;;;;;7374880;19;20047;-60
2023/11/02 09:18:27;;;;;;;4.85;0.70;;;15.20;99.90;;;;;;7378717;19;20017;-59
2023/11/02 09:20:54;;;;;;;3.20;0.93;;;14.90;99.90;;;;;;7380376;19;20054;-59
2023/11/02 09:23:20;;;;;;;2.38;1.00;;;15.40;99.90;;;;;;7377598;19;20014;-60
2023/11/02 09:25:47;;;;;;;5.38;1.23;;;15.60;99.90;;;;;;7378705;19;20014;-59
2023/11/02 09:28:15;;;;;;;3.30;0.73;;;15.80;99.90;;;;;;7378677;19;20016;-59
2023/11/02 09:30:42;;;;;;;1.02;0.60;;;15.60;99.90;;;;;;7380604;19;20030;-60
2023/11/02 09:33:08;;;;;;;3.45;0.80;;;15.20;99.90;;;;;;7378183;19;20061;-59
2023/11/02 09:35:35;;;;;;;3.17;0.80;;;15.00;99.90;;;;;;7372439;19;20010;-59
2023/11/02 09:38:01;;;;;;;3.47;1.00;;;15.60;99.90;;;;;;7376092;19;20022;-59
2023/11/02 09:40:28;;;;;;;2.60;0.68;;;15.30;99.90;;;;;;7380383;19;20022;-60
2023/11/02 09:42:54;;;;;;;4.25;0.90;;;14.80;99.90;;;;;;7377609;19;20019;-59
2023/11/02 09:45:21;;;;;;;3.50;0.88;;;14.50;99.90;;;;;;7381019;19;20405;-68
2023/11/02 09:47:49;;;;;;;2.83;0.75;;;14.10;99.90;;;;;;7379094;19;20078;-59
2023/11/02 09:50:15;;;;;;;3.38;1.05;;;13.80;99.90;;;;;;7380709;19;20052;-68
2023/11/02 09:52:45;;;;;;;3.15;0.80;;;13.60;99.90;;;;;;7377196;19;20023;-59
2023/11/02 09:55:12;;;;;;;2.33;0.90;;;13.40;99.90;;;;;;7375568;19;20645;-59
2023/11/02 09:57:38;;;;;;;4.18;1.15;;;13.30;99.90;;;;;;7375481;19;20028;-59
2023/11/02 10:00:08;;;;;;;2.25;0.70;;;13.10;99.90;;;;;;7377607;19;20056;-60
2023/11/02 10:02:39;;;;;;;2.25;0.77;;;13.10;99.90;;;;;;7378009;19;20046;-59
2023/11/02 10:05:08;;;;;;;1.70;0.68;;;13.10;99.90;;;;;;7374543;19;20026;-59
2023/11/02 10:07:35;;;;;;;4.60;0.63;;;13.00;99.90;;;;;;7376118;19;20488;-59
2023/11/02 10:10:04;;;;;;;3.38;0.63;;;13.00;99.90;;;;;;7376857;19;20030;-68
2023/11/02 10:12:36;;;;;;;3.17;0.68;;;13.00;99.90;;;;;;7378235;19;20068;-68
2023/11/02 10:15:04;;;;;;;2.20;0.70;;;13.10;99.90;;;;;;7377113;19;20053;-68
2023/11/02 10:17:34;;;;;;;4.53;1.02;;;13.10;99.90;;;;;;7374909;19;20023;-69
2023/11/02 10:20:06;;;;;;;2.00;0.68;;;13.10;99.90;;;;;;7377396;19;20014;-68
2023/11/02 10:22:32;;;;;;;;;;;13.20;99.90;;;;;;7374697;19;20514;-69
2023/11/02 10:24:58;;;;;;;2.33;0.60;;;13.30;99.90;;;;;;7373488;19;19931;-69
2023/11/02 10:27:25;;;;;;;2.30;0.60;;;13.30;99.90;;;;;;7376033;19;20612;-68
2023/11/02 10:29:52;;;;;;;4.32;1.13;;;13.30;99.90;;;;;;7376436;19;20549;-68
2023/11/02 10:32:21;;;;;;;2.42;0.65;;;13.30;99.90;;;;;;7375328;19;20358;-67
2023/11/02 10:34:47;;;;;;;2.65;0.65;;;13.30;99.90;;;;;;7373178;19;20105;-68
2023/11/02 10:37:13;;;;;;;2.17;0.70;;;13.30;99.90;;;;;;7377388;19;20011;-68
2023/11/02 10:39:40;;;;;;;2.42;0.60;;;13.40;99.90;;;;;;7375133;19;20078;-68
2023/11/02 10:42:06;;;;;;;5.00;0.75;;;13.50;99.90;;;;;;7379822;19;20378;-67
2023/11/02 10:44:37;;;;;;;3.05;0.60;;;13.50;99.90;;;;;;7376510;19;20063;-69
2023/11/02 10:47:05;;;;;;;4.30;0.93;;;13.60;99.90;;;;;;7376019;19;20022;-59
2023/11/02 10:49:37;;;;;;;4.00;0.80;;;13.80;99.90;;;;;;7373423;19;20018;-59
2023/11/02 10:52:10;;;;;;;3.80;0.70;;;14.20;99.90;;;;;;7376615;19;20402;-68
2023/11/02 10:54:48;;;;;;;1.83;0.70;;;14.30;99.90;;;;;;7376252;19;20040;-59
2023/11/02 10:57:19;;;;;;;7.88;1.40;;;14.50;99.90;;;;;;7374651;19;20125;-66
2023/11/02 10:59:47;;;;;;;4.27;0.77;;;14.50;99.90;;;;;;7375580;19;20015;-68
2023/11/02 11:02:18;;;;;;;4.65;0.75;;;14.80;99.90;;;;;;7375697;19;20295;-69
2023/11/02 11:04:48;;;;;;;2.22;0.73;;;14.80;99.90;;;;;;7373308;19;20836;-68
2023/11/02 11:07:15;;;;;;;3.10;0.70;;;14.80;99.90;;;;;;7377090;19;20769;-69
2023/11/02 11:09:42;;;;;;;3.30;0.93;;;14.80;99.90;;;;;;7373028;19;20025;-69
2023/11/02 11:12:09;;;;;;;2.45;0.80;;;14.70;99.90;;;;;;7376846;19;20033;-59
2023/11/02 11:14:39;;;;;;;2.60;0.93;;;14.60;99.90;;;;;;7373792;19;20022;-67
2023/11/02 11:17:05;;;;;;;4.85;1.05;;;14.60;99.90;;;;;;7374033;19;20018;-68
2023/11/02 11:19:34;;;;;;;2.03;0.70;;;14.50;99.90;;;;;;7374663;19;20015;-68
2023/11/02 11:22:09;;;;;;;3.42;0.90;;;14.50;99.90;;;;;;7370332;19;20503;-68
2023/11/02 11:24:35;;;;;;;6.53;1.00;;;14.50;99.90;;;;;;7372563;19;20026;-68
2023/11/02 11:27:05;;;;;;;4.03;0.90;;;14.50;99.90;;;;;;7371729;19;20015;-66
2023/11/02 11:29:39;;;;;;;5.18;1.00;;;14.50;99.90;;;;;;7372654;19;20018;-68
2023/11/02 11:32:08;;;;;;;3.85;0.90;;;14.50;99.90;;;;;;7375647;19;20058;-68
2023/11/02 11:34:53;;;;;;;2.95;0.80;;;14.80;99.90;;;;;;7369264;19;20014;-68
2023/11/02 11:37:34;;;;;;;3.25;0.82;;;15.00;99.90;;;;;;7375921;19;20163;-68
2023/11/02 11:40:05;;;;;;;3.55;0.73;;;14.90;99.90;;;;;;7377373;19;20014;-69
2023/11/02 11:43:12;;;;;;;4.75;0.88;;;15.40;99.90;;;;;;7369887;19;20014;-68
2023/11/02 11:45:48;;;;;;;3.08;0.95;;;15.40;99.90;;;;;;7375177;19;20014;-68
2023/11/02 11:48:44;;;;;;;4.70;1.35;;;15.20;99.90;;;;;;7375072;19;20018;-68
2023/11/02 11:51:34;;;;;;;3.78;1.23;;;15.50;99.90;;;;;;7370781;19;20078;-68
2023/11/02 11:54:09;;;;;;;4.50;0.95;;;15.40;99.90;;;;;;7368983;19;20042;-67
2023/11/02 11:56:38;;;;;;;3.35;1.08;;;15.20;99.90;;;;;;7374430;19;20010;-68
2023/11/02 11:59:04;;;;;;;7.75;0.90;;;15.00;99.90;;;;;;7374261;19;20022;-68
2023/11/02 12:01:30;;;;;;;5.32;1.15;;;14.90;99.90;;;;;;7372794;19;20015;-69
2023/11/02 12:03:57;;;;;;;3.15;0.85;;;14.80;99.90;;;;;;7372336;19;20774;-59
2023/11/02 12:06:41;;;;;;;6.95;1.67;;;14.70;99.90;;;;;;7372982;19;20046;-59
2023/11/02 12:09:09;;;;;;;3.20;1.05;;;14.70;99.90;;;;;;7375130;19;20011;-59
2023/11/02 12:11:36;;;;;;;6.43;1.30;;;14.60;99.90;;;;;;7370494;19;20482;-59
2023/11/02 12:14:13;;;;;;;6.55;1.00;;;14.50;99.90;;;;;;7372828;19;20369;-59
2023/11/02 12:16:40;;;;;;;5.95;1.35;;;14.50;99.90;;;;;;7369427;19;20446;-57
2023/11/02 12:19:07;;;;;;;6.20;1.27;;;14.50;99.90;;;;;;7372743;19;20019;-58
2023/11/02 12:21:33;;;;;;;4.18;1.20;;;14.60;99.90;;;;;;7371960;19;20022;-59
2023/11/02 12:24:00;;;;;;;6.05;1.55;;;14.80;99.90;;;;;;7371535;19;20031;-59
2023/11/02 12:26:28;;;;;;;8.85;1.15;;;14.90;99.90;;;;;;7371491;19;20026;-59
2023/11/02 12:29:04;;;;;;;3.50;1.33;;;14.90;99.90;;;;;;7372736;19;20481;-68
2023/11/02 12:31:31;;;;;;;5.95;1.15;;;15.90;99.90;;;;;;7369524;19;20057;-68
2023/11/02 12:34:11;;;;;;;4.30;1.00;;;17.20;99.90;;;;;;7373701;19;20029;-69
2023/11/02 12:36:42;;;;;;;6.18;1.02;;;18.70;99.90;;;;;;7370746;19;20026;-60
2023/11/02 12:39:13;;;;;;;2.97;1.10;;;19.30;99.90;;;;;;7370610;19;20018;-60
2023/11/02 12:41:43;;;;;;;7.05;1.27;;;20.10;99.90;;;;;;7370068;19;20018;-60
2023/11/02 12:44:12;;;;;;;5.22;1.17;;;19.50;99.90;;;;;;7371723;19;20049;-60
2023/11/02 12:46:41;;;;;;;4.28;1.08;;;18.60;99.90;;;;;;7372913;19;20022;-60
2023/11/02 12:49:11;;;;;;;7.13;1.63;;;17.90;99.90;;;;;;7376469;19;20018;-60
2023/11/02 12:51:37;;;;;;;5.25;1.15;;;17.10;99.90;;;;;;7379087;19;20039;-60
2023/11/02 12:54:12;;;;;;;11.02;1.60;;;16.50;99.90;;;;;;7376836;19;20119;-60
2023/11/02 12:56:39;;;;;;;4.72;1.10;;;16.10;99.90;;;;;;7376936;19;20010;-60
2023/11/02 12:59:07;;;;;;;6.32;1.45;;;15.70;99.90;;;;;;7379268;19;20549;-60
2023/11/02 13:01:54;;;;;;;8.07;1.65;;;15.50;99.90;;;;;;7374922;19;20720;-60
2023/11/02 13:04:28;;;;;;;5.63;1.13;;;15.30;99.90;;;;;;7375985;19;20395;-60
2023/11/02 13:06:57;;;;;;;7.97;1.48;;;15.20;99.90;;;;;;7376183;19;20021;-69
2023/11/02 13:09:26;;;;;;;6.38;1.30;;;15.10;99.90;;;;;;7385524;19;20744;-68